createdAt,value
2022-11-05T00:00:32.247Z,100.00
2022-11-05T00:03:17.099Z,100.00
2022-11-05T00:06:08.387Z,100.00
2022-11-05T00:08:53.658Z,100.00
2022-11-05T00:11:40.354Z,100.00
2022-11-05T00:14:27.991Z,100.00
2022-11-05T00:16:57.482Z,100.00
2022-11-05T00:19:29.234Z,100.00
2022-11-05T00:22:14.032Z,100.00
2022-11-05T00:24:58.872Z,100.00
2022-11-05T00:27:25.497Z,100.00
2022-11-05T00:29:54.252Z,100.00
2022-11-05T00:32:23.073Z,100.00
2022-11-05T00:34:49.568Z,100.00
2022-11-05T00:37:16.098Z,100.00
2022-11-05T00:39:45.098Z,100.00
2022-11-05T00:42:30.147Z,100.00
2022-11-05T00:45:02.548Z,100.00
2022-11-05T00:47:51.918Z,100.00
2022-11-05T00:50:22.191Z,100.00
2022-11-05T00:52:59.622Z,100.00
2022-11-05T00:55:26.277Z,100.00
2022-11-05T00:57:52.790Z,100.00
2022-11-05T01:00:19.483Z,100.00
2022-11-05T01:02:46.251Z,100.00
2022-11-05T01:05:13.982Z,100.00
2022-11-05T01:07:42.982Z,100.00
2022-11-05T01:10:09.683Z,100.00
2022-11-05T01:12:36.194Z,100.00
2022-11-05T01:15:07.747Z,100.00
2022-11-05T01:17:34.445Z,100.00
2022-11-05T01:20:00.966Z,100.00
2022-11-05T01:22:29.722Z,100.00
2022-11-05T01:24:56.301Z,100.00
2022-11-05T01:27:25.036Z,100.00
2022-11-05T01:29:51.562Z,100.00
2022-11-05T01:32:18.075Z,100.00
2022-11-05T01:34:46.908Z,100.00
2022-11-05T01:37:18.275Z,100.00
2022-11-05T01:39:49.692Z,100.00
2022-11-05T01:42:22.483Z,100.00
2022-11-05T01:45:10.758Z,100.00
2022-11-05T01:47:58.230Z,100.00
2022-11-05T01:50:42.808Z,100.00
2022-11-05T01:53:21.355Z,100.00
2022-11-05T01:56:01.034Z,100.00
2022-11-05T01:58:34.655Z,100.00
2022-11-05T02:01:03.431Z,100.00
2022-11-05T02:03:35.798Z,100.00
2022-11-05T02:06:09.671Z,100.00
2022-11-05T02:08:57.417Z,100.00
2022-11-05T02:11:24.824Z,100.00
2022-11-05T02:13:51.902Z,100.00
2022-11-05T02:16:18.363Z,100.00
2022-11-05T02:18:53.506Z,100.00
2022-11-05T02:22:01.935Z,100.00
2022-11-05T02:24:48.852Z,100.00
2022-11-05T02:28:01.309Z,100.00
2022-11-05T02:30:53.749Z,100.00
2022-11-05T02:33:33.716Z,100.00
2022-11-05T02:36:18.298Z,100.00
2022-11-05T02:38:56.098Z,100.00
2022-11-05T02:41:31.464Z,100.00
2022-11-05T02:44:16.917Z,100.00
2022-11-05T02:47:04.206Z,100.00
2022-11-05T02:49:52.503Z,100.00
2022-11-05T02:52:33.902Z,100.00
2022-11-05T02:55:30.540Z,100.00
2022-11-05T02:57:59.760Z,100.00
2022-11-05T03:00:48.308Z,100.00
2022-11-05T03:03:53.682Z,100.00
2022-11-05T03:06:29.179Z,100.00
2022-11-05T03:09:07.744Z,100.00
2022-11-05T03:11:48.032Z,100.00
2022-11-05T03:14:35.540Z,100.00
2022-11-05T03:17:22.304Z,100.00
2022-11-05T03:19:57.949Z,100.00
2022-11-05T03:22:31.052Z,100.00
2022-11-05T03:25:11.529Z,100.00
2022-11-05T03:27:43.300Z,100.00
2022-11-05T03:30:15.666Z,100.00
2022-11-05T03:32:49.096Z,100.00
2022-11-05T03:35:21.025Z,100.00
2022-11-05T03:37:53.902Z,100.00
2022-11-05T03:40:25.142Z,100.00
2022-11-05T03:42:57.729Z,100.00
2022-11-05T03:45:32.804Z,100.00
2022-11-05T03:48:05.147Z,100.00
2022-11-05T03:50:41.065Z,100.00
2022-11-05T03:53:21.089Z,100.00
2022-11-05T03:56:14.134Z,100.00
2022-11-05T03:58:53.365Z,100.00
2022-11-05T04:01:23.350Z,100.00
2022-11-05T04:03:49.915Z,100.00
2022-11-05T04:06:34.754Z,100.00
2022-11-05T04:09:19.734Z,100.00
2022-11-05T04:12:04.711Z,100.00
2022-11-05T04:14:31.386Z,100.00
2022-11-05T04:17:06.890Z,100.00
2022-11-05T04:19:59.535Z,100.00
2022-11-05T04:22:46.901Z,100.00
2022-11-05T04:25:17.525Z,100.00
2022-11-05T04:27:44.735Z,100.00
2022-11-05T04:30:21.794Z,100.00
2022-11-05T04:33:12.981Z,100.00
2022-11-05T04:35:39.671Z,100.00
2022-11-05T04:38:11.169Z,100.00
2022-11-05T04:40:40.475Z,100.00
2022-11-05T04:43:15.036Z,100.00
2022-11-05T04:45:45.481Z,100.00
2022-11-05T04:48:16.552Z,100.00
2022-11-05T04:50:45.623Z,100.00
2022-11-05T04:53:12.338Z,100.00
2022-11-05T04:55:41.296Z,100.00
2022-11-05T04:58:12.548Z,100.00
2022-11-05T05:00:39.052Z,100.00
2022-11-05T05:03:08.813Z,100.00
2022-11-05T05:05:35.533Z,100.00
2022-11-05T05:08:05.792Z,100.00
2022-11-05T05:10:32.671Z,100.00
2022-11-05T05:13:01.729Z,100.00
2022-11-05T05:15:28.261Z,100.00
2022-11-05T05:17:57.295Z,100.00
2022-11-05T05:20:44.930Z,100.00
2022-11-05T05:23:13.821Z,100.00
2022-11-05T05:25:40.406Z,100.00
2022-11-05T05:28:06.908Z,100.00
2022-11-05T05:30:35.939Z,100.00
2022-11-05T05:33:04.004Z,100.00
2022-11-05T05:35:31.233Z,100.00
2022-11-05T05:37:57.895Z,100.00
2022-11-05T05:40:24.539Z,100.00
2022-11-05T05:42:59.381Z,100.00
2022-11-05T05:45:30.712Z,100.00
2022-11-05T05:48:02.186Z,100.00
2022-11-05T05:50:28.732Z,100.00
2022-11-05T05:52:58.308Z,100.00
2022-11-05T05:55:27.103Z,100.00
2022-11-05T05:57:54.350Z,100.00
2022-11-05T06:00:21.069Z,100.00
2022-11-05T06:02:47.814Z,100.00
2022-11-05T06:05:16.671Z,100.00
2022-11-05T06:07:43.176Z,100.00
2022-11-05T06:10:11.951Z,100.00
2022-11-05T06:12:40.778Z,100.00
2022-11-05T06:15:15.074Z,100.00
2022-11-05T06:17:44.635Z,100.00
2022-11-05T06:20:14.558Z,100.00
2022-11-05T06:22:43.660Z,100.00
2022-11-05T06:25:10.713Z,100.00
2022-11-05T06:27:37.414Z,100.00
2022-11-05T06:30:07.428Z,100.00
2022-11-05T06:32:36.541Z,100.00
2022-11-05T06:35:05.736Z,100.00
2022-11-05T06:37:34.661Z,100.00
2022-11-05T06:40:01.346Z,100.00
2022-11-05T06:42:27.927Z,100.00
2022-11-05T06:44:56.667Z,100.00
2022-11-05T06:47:25.921Z,100.00
2022-11-05T06:49:57.322Z,100.00
2022-11-05T06:52:23.840Z,100.00
2022-11-05T06:54:52.579Z,100.00
2022-11-05T06:57:23.698Z,100.00
2022-11-05T06:59:50.199Z,100.00
2022-11-05T07:02:19.277Z,100.00
2022-11-05T07:04:45.817Z,100.00
2022-11-05T07:07:12.344Z,100.00
2022-11-05T07:09:43.142Z,100.00
2022-11-05T07:12:10.331Z,100.00
2022-11-05T07:14:36.942Z,100.00
2022-11-05T07:17:03.599Z,100.00
2022-11-05T07:19:32.325Z,100.00
2022-11-05T07:21:58.858Z,100.00
2022-11-05T07:24:32.481Z,100.00
2022-11-05T07:26:59.021Z,100.00
2022-11-05T07:29:25.609Z,100.00
2022-11-05T07:31:52.140Z,100.00
2022-11-05T07:34:18.618Z,100.00
2022-11-05T07:36:47.367Z,100.00
2022-11-05T07:39:18.702Z,100.00
2022-11-05T07:41:45.187Z,100.00
2022-11-05T07:44:12.007Z,100.00
2022-11-05T07:46:38.487Z,100.00
2022-11-05T07:49:07.744Z,100.00
2022-11-05T07:51:36.348Z,100.00
2022-11-05T07:54:03.081Z,100.00
2022-11-05T07:56:29.583Z,100.00
2022-11-05T07:58:56.090Z,100.00
2022-11-05T08:01:22.800Z,100.00
2022-11-05T08:03:49.513Z,100.00
2022-11-05T08:06:16.121Z,100.00
2022-11-05T08:08:42.614Z,100.00
2022-11-05T08:11:10.337Z,100.00
2022-11-05T08:13:37.145Z,100.00
2022-11-05T08:16:04.686Z,100.00
2022-11-05T08:18:32.500Z,100.00
2022-11-05T08:21:05.816Z,100.00
2022-11-05T08:23:32.415Z,100.00
2022-11-05T08:26:04.806Z,100.00
2022-11-05T08:28:31.749Z,100.00
2022-11-05T08:30:58.480Z,100.00
2022-11-05T08:33:29.078Z,100.00
2022-11-05T08:35:58.683Z,100.00
2022-11-05T08:38:27.273Z,100.00
2022-11-05T08:40:58.728Z,100.00
2022-11-05T08:43:25.469Z,100.00
2022-11-05T08:45:55.095Z,100.00
2022-11-05T08:48:21.643Z,100.00
2022-11-05T08:50:53.473Z,100.00
2022-11-05T08:53:20.299Z,100.00
2022-11-05T08:55:47.815Z,100.00
2022-11-05T08:58:20.714Z,100.00
2022-11-05T09:00:49.774Z,100.00
2022-11-05T09:03:17.473Z,100.00
2022-11-05T09:05:44.242Z,100.00
2022-11-05T09:08:19.026Z,100.00
2022-11-05T09:10:47.019Z,100.00
2022-11-05T09:13:19.016Z,100.00
2022-11-05T09:15:47.245Z,100.00
2022-11-05T09:18:14.678Z,100.00
2022-11-05T09:20:41.885Z,100.00
2022-11-05T09:23:16.963Z,100.00
2022-11-05T09:25:46.316Z,100.00
2022-11-05T09:28:20.208Z,100.00
2022-11-05T09:30:52.066Z,100.00
2022-11-05T09:33:24.132Z,100.00
2022-11-05T09:35:51.887Z,100.00
2022-11-05T09:38:21.198Z,100.00
2022-11-05T09:40:47.670Z,100.00
2022-11-05T09:43:31.219Z,100.00
2022-11-05T09:46:03.530Z,100.00
2022-11-05T09:48:32.134Z,100.00
2022-11-05T09:51:01.531Z,100.00
2022-11-05T09:53:28.331Z,100.00
2022-11-05T09:55:58.050Z,100.00
2022-11-05T09:58:43.988Z,100.00
2022-11-05T10:01:21.522Z,100.00
2022-11-05T10:03:52.199Z,100.00
2022-11-05T10:06:24.229Z,100.00
2022-11-05T10:09:01.510Z,100.00
2022-11-05T10:11:35.697Z,100.00
2022-11-05T10:14:32.985Z,100.00
2022-11-05T10:17:05.246Z,100.00
2022-11-05T10:19:45.596Z,100.00
2022-11-05T10:22:16.575Z,100.00
2022-11-05T10:24:47.119Z,100.00
2022-11-05T10:27:21.527Z,100.00
2022-11-05T10:29:53.298Z,100.00
2022-11-05T10:32:31.493Z,100.00
2022-11-05T10:35:01.910Z,100.00
2022-11-05T10:37:33.481Z,100.00
2022-11-05T10:40:01.721Z,100.00
2022-11-05T10:42:28.175Z,100.00
2022-11-05T10:45:09.075Z,100.00
2022-11-05T10:48:03.629Z,100.00
2022-11-05T10:50:30.460Z,100.00
2022-11-05T10:53:02.648Z,100.00
2022-11-05T10:55:31.626Z,100.00
2022-11-05T10:58:13.491Z,100.00
2022-11-05T11:00:40.353Z,100.00
2022-11-05T11:03:38.217Z,100.00
2022-11-05T11:06:30.341Z,100.00
2022-11-05T11:09:02.713Z,100.00
2022-11-05T11:11:31.754Z,100.00
2022-11-05T11:14:02.953Z,100.00
2022-11-05T11:16:35.755Z,100.00
2022-11-05T11:19:05.763Z,100.00
2022-11-05T11:21:33.228Z,100.00
2022-11-05T11:24:07.024Z,100.00
2022-11-05T11:26:40.407Z,100.00
2022-11-05T11:29:14.021Z,100.00
2022-11-05T11:31:50.289Z,100.00
2022-11-05T11:34:29.375Z,100.00
2022-11-05T11:37:12.834Z,100.00
2022-11-05T11:39:46.335Z,100.00
2022-11-05T11:42:24.310Z,100.00
2022-11-05T11:44:54.093Z,100.00
2022-11-05T11:47:29.525Z,100.00
2022-11-05T11:50:01.317Z,100.00
2022-11-05T11:52:37.406Z,100.00
2022-11-05T11:55:12.769Z,100.00
2022-11-05T11:57:49.628Z,100.00
2022-11-05T12:00:20.352Z,100.00
2022-11-05T12:02:54.853Z,100.00
2022-11-05T12:05:50.255Z,100.00
2022-11-05T12:08:16.738Z,100.00
2022-11-05T12:11:13.128Z,100.00
2022-11-05T12:14:04.108Z,100.00
2022-11-05T12:16:36.859Z,100.00
2022-11-05T12:19:07.871Z,100.00
2022-11-05T12:21:52.996Z,100.00
2022-11-05T12:24:47.435Z,100.00
2022-11-05T12:27:16.841Z,100.00
2022-11-05T12:30:05.239Z,100.00
2022-11-05T12:33:02.788Z,100.00
2022-11-05T12:35:54.835Z,100.00
2022-11-05T12:38:27.456Z,100.00
2022-11-05T12:41:16.383Z,100.00
2022-11-05T12:43:54.779Z,100.00
2022-11-05T12:46:33.567Z,100.00
2022-11-05T12:49:41.187Z,100.00
2022-11-05T12:52:18.251Z,100.00
2022-11-05T12:55:22.629Z,100.00
2022-11-05T12:57:53.443Z,100.00
2022-11-05T13:00:21.909Z,100.00
2022-11-05T13:03:03.637Z,100.00
2022-11-05T13:05:35.113Z,98.48
2022-11-05T13:08:09.847Z,96.73
2022-11-05T13:10:57.233Z,100.00
2022-11-05T13:13:33.971Z,100.00
2022-11-05T13:16:13.111Z,100.00
2022-11-05T13:18:49.535Z,99.39
2022-11-05T13:21:24.102Z,99.39
2022-11-05T13:23:55.441Z,100.00
2022-11-05T13:26:31.713Z,99.13
2022-11-05T13:29:16.831Z,100.00
2022-11-05T13:31:54.201Z,100.00
2022-11-05T13:34:20.858Z,100.00
2022-11-05T13:37:09.100Z,99.38
2022-11-05T13:39:45.190Z,100.00
2022-11-05T13:42:36.173Z,92.53
2022-11-05T13:45:14.836Z,97.10
2022-11-05T13:48:09.105Z,89.27
2022-11-05T13:50:49.300Z,85.30
2022-11-05T13:53:41.145Z,90.80
2022-11-05T13:56:32.449Z,93.41
2022-11-05T13:59:26.545Z,88.81
2022-11-05T14:01:58.248Z,89.61
2022-11-05T14:04:30.821Z,88.56
2022-11-05T14:07:12.542Z,88.81
2022-11-05T14:09:40.812Z,91.47
2022-11-05T14:12:18.798Z,93.02
2022-11-05T14:14:58.464Z,93.18
2022-11-05T14:17:31.603Z,95.71
2022-11-05T14:20:01.114Z,94.30
2022-11-05T14:22:29.103Z,96.26
2022-11-05T14:24:57.873Z,92.91
2022-11-05T14:27:36.632Z,98.16
2022-11-05T14:30:40.954Z,97.75
2022-11-05T14:33:31.114Z,98.49
2022-11-05T14:36:22.498Z,97.24
2022-11-05T14:38:54.223Z,99.03
2022-11-05T14:41:23.957Z,97.48
2022-11-05T14:44:06.838Z,100.00
2022-11-05T14:46:41.617Z,99.16
2022-11-05T14:49:21.003Z,100.00
2022-11-05T14:51:55.904Z,94.69
2022-11-05T14:54:40.733Z,95.05
2022-11-05T14:57:29.930Z,98.45
2022-11-05T15:00:00.810Z,100.00
2022-11-05T15:02:34.704Z,98.36
2022-11-05T15:05:36.053Z,98.19
2022-11-05T15:08:37.255Z,99.18
2022-11-05T15:11:09.627Z,98.75
2022-11-05T15:13:55.827Z,98.00
2022-11-05T15:16:35.096Z,98.06
2022-11-05T15:19:03.261Z,100.00
2022-11-05T15:21:36.307Z,99.44
2022-11-05T15:24:07.174Z,100.00
2022-11-05T15:26:54.377Z,97.51
2022-11-05T15:29:25.730Z,97.43
2022-11-05T15:31:53.152Z,100.00
2022-11-05T15:34:22.650Z,99.25
2022-11-05T15:36:56.924Z,97.64
2022-11-05T15:39:39.238Z,100.00
2022-11-05T15:42:14.614Z,100.00
2022-11-05T15:44:46.423Z,100.00
2022-11-05T15:47:20.244Z,100.00
2022-11-05T15:50:14.705Z,100.00
2022-11-05T15:52:53.870Z,100.00
2022-11-05T15:55:27.341Z,100.00
2022-11-05T15:58:06.848Z,100.00
2022-11-05T16:00:36.358Z,100.00
2022-11-05T16:03:23.857Z,100.00
2022-11-05T16:05:50.515Z,100.00
2022-11-05T16:08:21.208Z,100.00
2022-11-05T16:10:50.367Z,100.00
2022-11-05T16:13:33.656Z,100.00
2022-11-05T16:16:09.045Z,100.00
2022-11-05T16:18:38.791Z,100.00
2022-11-05T16:21:08.286Z,100.00
2022-11-05T16:23:42.846Z,100.00
2022-11-05T16:26:55.788Z,100.00
2022-11-05T16:29:27.944Z,100.00
2022-11-05T16:31:58.025Z,100.00
2022-11-05T16:34:27.531Z,100.00
2022-11-05T16:36:57.947Z,100.00
2022-11-05T16:39:25.187Z,100.00
2022-11-05T16:41:51.846Z,100.00
2022-11-05T16:44:18.362Z,100.00
2022-11-05T16:46:48.608Z,100.00
2022-11-05T16:49:15.972Z,100.00
2022-11-05T16:51:42.925Z,100.00
2022-11-05T16:54:09.754Z,100.00
2022-11-05T16:56:36.862Z,100.00
2022-11-05T16:59:04.228Z,100.00
2022-11-05T17:01:33.576Z,100.00
2022-11-05T17:04:00.214Z,100.00
2022-11-05T17:06:29.204Z,100.00
2022-11-05T17:08:55.723Z,100.00
2022-11-05T17:11:22.253Z,100.00
2022-11-05T17:13:51.327Z,100.00
2022-11-05T17:16:18.024Z,100.00
2022-11-05T17:18:46.901Z,100.00
2022-11-05T17:21:18.224Z,100.00
2022-11-05T17:23:47.043Z,100.00
2022-11-05T17:26:14.091Z,100.00
2022-11-05T17:28:40.802Z,100.00
2022-11-05T17:31:14.133Z,100.00
2022-11-05T17:33:43.257Z,100.00
2022-11-05T17:36:13.580Z,100.00
2022-11-05T17:38:40.190Z,100.00
2022-11-05T17:41:17.062Z,100.00
2022-11-05T17:43:46.362Z,100.00
2022-11-05T17:46:16.126Z,100.00
2022-11-05T17:48:43.096Z,100.00
2022-11-05T17:51:11.654Z,100.00
2022-11-05T17:53:38.195Z,100.00
2022-11-05T17:56:11.963Z,100.00
2022-11-05T17:58:39.185Z,100.00
2022-11-05T18:01:07.229Z,100.00
2022-11-05T18:03:33.996Z,100.00
2022-11-05T18:06:06.794Z,100.00
2022-11-05T18:08:36.004Z,100.00
2022-11-05T18:11:04.840Z,100.00
2022-11-05T18:13:31.343Z,100.00
2022-11-05T18:15:58.013Z,100.00
2022-11-05T18:18:27.222Z,100.00
2022-11-05T18:20:57.562Z,100.00
2022-11-05T18:23:26.745Z,100.00
2022-11-05T18:25:55.684Z,100.00
2022-11-05T18:28:22.195Z,100.00
2022-11-05T18:30:53.292Z,100.00
2022-11-05T18:33:19.843Z,100.00
2022-11-05T18:35:46.557Z,100.00
2022-11-05T18:38:13.194Z,100.00
2022-11-05T18:40:41.941Z,100.00
2022-11-05T18:43:11.430Z,100.00
2022-11-05T18:45:38.156Z,100.00
2022-11-05T18:48:08.079Z,100.00
2022-11-05T18:50:34.584Z,100.00
2022-11-05T18:53:01.105Z,100.00
2022-11-05T18:55:27.677Z,100.00
2022-11-05T18:57:56.411Z,100.00
2022-11-05T19:00:25.275Z,100.00
2022-11-05T19:02:54.295Z,100.00
2022-11-05T19:05:28.918Z,100.00
2022-11-05T19:07:56.170Z,100.00
2022-11-05T19:10:22.841Z,100.00
2022-11-05T19:12:50.624Z,100.00
2022-11-05T19:15:21.927Z,100.00
2022-11-05T19:17:48.500Z,100.00
2022-11-05T19:20:18.226Z,100.00
2022-11-05T19:22:44.732Z,100.00
2022-11-05T19:25:11.746Z,100.00
2022-11-05T19:27:38.662Z,100.00
2022-11-05T19:30:05.947Z,100.00
2022-11-05T19:32:37.226Z,100.00
2022-11-05T19:35:04.149Z,100.00
2022-11-05T19:37:30.649Z,100.00
2022-11-05T19:39:57.191Z,100.00
2022-11-05T19:42:24.107Z,100.00
2022-11-05T19:44:53.130Z,100.00
2022-11-05T19:47:19.615Z,100.00
2022-11-05T19:49:46.132Z,100.00
2022-11-05T19:52:15.148Z,100.00
2022-11-05T19:54:41.748Z,100.00
2022-11-05T19:57:10.561Z,100.00
2022-11-05T19:59:37.131Z,100.00
2022-11-05T20:02:03.839Z,100.00
2022-11-05T20:04:32.919Z,100.00
2022-11-05T20:06:59.431Z,100.00
2022-11-05T20:09:28.327Z,100.00
2022-11-05T20:11:57.376Z,100.00
2022-11-05T20:14:25.769Z,100.00
2022-11-05T20:16:52.893Z,100.00
2022-11-05T20:19:21.162Z,100.00
2022-11-05T20:21:48.462Z,100.00
2022-11-05T20:24:23.663Z,100.00
2022-11-05T20:26:54.269Z,100.00
2022-11-05T20:29:21.753Z,100.00
2022-11-05T20:31:52.307Z,100.00
2022-11-05T20:34:18.825Z,100.00
2022-11-05T20:36:45.343Z,100.00
2022-11-05T20:39:12.169Z,100.00
2022-11-05T20:41:41.233Z,100.00
2022-11-05T20:44:07.795Z,100.00
2022-11-05T20:46:34.635Z,100.00
2022-11-05T20:49:01.149Z,100.00
2022-11-05T20:51:27.722Z,100.00
2022-11-05T20:54:00.604Z,100.00
2022-11-05T20:56:30.339Z,100.00
2022-11-05T20:58:58.791Z,100.00
2022-11-05T21:01:27.705Z,100.00
2022-11-05T21:03:54.524Z,100.00
2022-11-05T21:06:21.085Z,100.00
2022-11-05T21:08:51.384Z,100.00
2022-11-05T21:11:21.705Z,100.00
2022-11-05T21:13:48.695Z,100.00
2022-11-05T21:16:18.707Z,100.00
2022-11-05T21:18:50.166Z,100.00
2022-11-05T21:21:22.466Z,100.00
2022-11-05T21:23:53.815Z,100.00
2022-11-05T21:26:22.686Z,100.00
2022-11-05T21:28:49.181Z,100.00
2022-11-05T21:31:15.679Z,100.00
2022-11-05T21:33:44.436Z,100.00
2022-11-05T21:36:12.987Z,100.00
2022-11-05T21:38:42.427Z,100.00
2022-11-05T21:41:13.836Z,100.00
2022-11-05T21:43:41.747Z,100.00
2022-11-05T21:46:14.539Z,100.00
2022-11-05T21:48:41.054Z,100.00
2022-11-05T21:51:26.404Z,100.00
2022-11-05T21:54:14.177Z,100.00
2022-11-05T21:56:59.481Z,100.00
2022-11-05T21:59:46.755Z,100.00
2022-11-05T22:02:18.182Z,100.00
2022-11-05T22:04:47.460Z,100.00
2022-11-05T22:07:21.139Z,100.00
2022-11-05T22:09:52.189Z,100.00
2022-11-05T22:12:21.040Z,100.00
2022-11-05T22:14:47.543Z,100.00
2022-11-05T22:17:17.384Z,100.00
2022-11-05T22:19:46.739Z,100.00
2022-11-05T22:22:16.019Z,100.00
2022-11-05T22:24:43.062Z,100.00
2022-11-05T22:27:13.790Z,100.00
2022-11-05T22:29:40.524Z,100.00
2022-11-05T22:32:07.515Z,100.00
2022-11-05T22:34:36.427Z,100.00
2022-11-05T22:37:05.554Z,100.00
2022-11-05T22:39:34.313Z,100.00
2022-11-05T22:42:05.578Z,100.00
2022-11-05T22:44:34.825Z,100.00
2022-11-05T22:47:01.421Z,100.00
2022-11-05T22:49:27.968Z,100.00
2022-11-05T22:51:54.457Z,100.00
2022-11-05T22:54:25.721Z,100.00
2022-11-05T22:56:53.753Z,100.00
2022-11-05T22:59:20.445Z,100.00
2022-11-05T23:01:49.480Z,100.00
2022-11-05T23:04:18.916Z,100.00
2022-11-05T23:07:04.063Z,100.00
2022-11-05T23:09:52.513Z,100.00
2022-11-05T23:12:31.147Z,100.00
2022-11-05T23:14:59.027Z,100.00
2022-11-05T23:17:45.737Z,100.00
2022-11-05T23:20:45.250Z,100.00
2022-11-05T23:23:31.090Z,100.00
2022-11-05T23:25:59.443Z,100.00
2022-11-05T23:28:30.948Z,100.00
2022-11-05T23:31:18.681Z,100.00
2022-11-05T23:33:45.181Z,100.00
2022-11-05T23:36:31.287Z,100.00
2022-11-05T23:38:57.784Z,100.00
2022-11-05T23:41:43.076Z,100.00
2022-11-05T23:44:27.903Z,100.00
2022-11-05T23:47:15.559Z,100.00
2022-11-05T23:49:45.087Z,100.00
2022-11-05T23:52:11.587Z,100.00
2022-11-05T23:54:38.105Z,100.00
2022-11-05T23:57:07.097Z,100.00
2022-11-05T23:59:35.889Z,100.00
